• Join FlightAware (Why Join?)
  • Login
  • US Flag 
04:47AM EDT


 

Airport Tracker/Info


-or-


 

Live Flight TrackerFlight Track Log ✈ N52712 ✈ 19-May-2013 ✈ KBED - KBED

Flight Track Log - Related Links

Times and Time Zones

All times are in EDT time to prevent confusion due to time zone crossing. See the N52712 flight status page for this flight to view local times or setup timezone preferences in your user account.

Time Position Orientation Groundspeed Altitude Reporting Facility
EDT Latitude Longitude Course Direction KTS MPH feet Rate Location/Type
01:39PM 42.4667 -71.3000 270° West 68 78 1,000  Level KA90
01:40PM 42.4667 -71.3333 270° West 77 89 2,000 720 Climbing KA90
01:41PM 42.4500 -71.3667 236° Southwest 80 92 2,700 780 Climbing KA90
01:42PM 42.4667 -71.4000 304° West 96 110 3,700 720 Climbing KA90
01:43PM 42.4833 -71.3833 36° Northeast 99 114 4,200 660 Climbing KA90
01:44PM 42.5000 -71.3667 36° Northeast 100 115 5,000 420 Climbing KA90
01:45PM 42.5333 -71.3333 36° Northeast 122 140 5,100  Climbing KA90
01:46PM 42.5500 -71.3167 36° Northeast 130 150 5,100  Level KA90
01:47PM 42.5833 -71.2833 36° Northeast 133 153 5,100  Level KA90
01:48PM 42.6167 -71.2500 36° Northeast 139 160 5,100  Level KA90
01:49PM 42.6500 -71.2333 20° North 140 161 5,100  Level KA90
01:50PM 42.6833 -71.2000 36° Northeast 136 157 5,100  Level KA90
01:51PM 42.7167 -71.1667 36° Northeast 131 151 5,100  Level KA90
01:52PM 42.7500 -71.1500 20° North 132 152 5,100  Level KA90
01:53PM 42.7667 -71.1167 56° Northeast 131 151 5,100  Level KA90
01:54PM 42.8000 -71.0833 36° Northeast 128 147 5,100  Level KA90
01:55PM 42.8333 -71.0667 20° North 130 150 5,100  Level KA90
01:56PM 42.8667 -71.0333 36° Northeast 130 150 5,100  Level KA90
01:57PM 42.8833 -71.0000 56° Northeast 131 151 5,100  Level KA90
01:58PM 42.9167 -70.9833 20° North 133 153 5,100  Level KA90
01:59PM 42.9500 -70.9500 36° Northeast 132 152 5,100  Level KA90
02:00PM 42.9833 -70.9167 36° Northeast 135 155 5,100  Level KA90
02:01PM 43.0167 -70.9000 20° North 131 151 5,100  Level KA90
02:02PM 43.0333 -70.8667 56° Northeast 125 144 5,100  Level KA90
02:03PM 43.0667 -70.8333 36° Northeast 125 144 5,100  Level KA90
02:04PM 43.1000 -70.8167 20° North 124 143 5,100  Level KA90
02:06PM 43.1343 -70.7939 26° Northeast  Level FlightAware Approximate
02:13PM 43.3312 -70.6611 27° Northeast  Level FlightAware Approximate
02:14PM 43.3590 -70.6413 27° Northeast  Level FlightAware Approximate
02:15PM 43.3867 -70.6214 27° Northeast  Level FlightAware Approximate
02:16PM 43.4145 -70.6015 27° Northeast  Level FlightAware Approximate
02:17PM 43.4409 -70.5784 33° Northeast  Level FlightAware Approximate
02:18PM 43.4630 -70.5590 33° Northeast  Level FlightAware Approximate
02:19PM 43.4850 -70.5396 33° Northeast  Level FlightAware Approximate
02:20PM 43.5070 -70.5202 33° Northeast  Level FlightAware Approximate
02:21PM 43.5290 -70.5008 33° Northeast  Level FlightAware Approximate
02:22PM 43.5510 -70.4814 33° Northeast  Level FlightAware Approximate
02:23PM 43.5731 -70.4620 33° Northeast  Level FlightAware Approximate
02:24PM 43.5951 -70.4425 33° Northeast  Level FlightAware Approximate
02:25PM 43.6171 -70.4231 33° Northeast  Level FlightAware Approximate
02:26PM 43.6391 -70.4036 33° Northeast  Level FlightAware Approximate
02:27PM 43.6611 -70.3841 33° Northeast  Level FlightAware Approximate
02:28PM 43.6831 -70.3646 33° Northeast  Level FlightAware Approximate
02:29PM 43.7051 -70.3451 33° Northeast  Level FlightAware Approximate
02:30PM 43.7271 -70.3255 33° Northeast  Level FlightAware Approximate
02:31PM 43.7491 -70.3060 33° Northeast  Level FlightAware Approximate
02:32PM 43.7710 -70.2864 33° Northeast  Level FlightAware Approximate
02:33PM 43.7930 -70.2669 33° Northeast  Level FlightAware Approximate
02:34PM 43.8150 -70.2473 33° Northeast  Level FlightAware Approximate
02:35PM 43.8370 -70.2277 33° Northeast  Level FlightAware Approximate
02:36PM 43.8589 -70.2080 33° Northeast  Level FlightAware Approximate
02:37PM 43.8809 -70.1884 33° Northeast  Level FlightAware Approximate
02:38PM 43.9029 -70.1687 33° Northeast  Level FlightAware Approximate
02:39PM 43.9248 -70.1491 33° Northeast  Level FlightAware Approximate
02:40PM 43.9468 -70.1294 33° Northeast  Level FlightAware Approximate
02:41PM 43.9687 -70.1097 33° Northeast  Level FlightAware Approximate
02:42PM 43.9907 -70.0900 33° Northeast  Level FlightAware Approximate
02:43PM 44.0126 -70.0703 33° Northeast  Level FlightAware Approximate
02:44PM 44.0344 -70.0500 34° Northeast  Level FlightAware Approximate
02:45PM 44.0560 -70.0297 34° Northeast  Level FlightAware Approximate
02:46PM 44.0777 -70.0093 34° Northeast  Level FlightAware Approximate
02:47PM 44.0993 -69.9890 34° Northeast  Level FlightAware Approximate
02:48PM 44.1210 -69.9686 34° Northeast  Level FlightAware Approximate
02:49PM 44.1426 -69.9482 34° Northeast  Level FlightAware Approximate
02:50PM 44.1642 -69.9277 34° Northeast  Level FlightAware Approximate
02:51PM 44.1859 -69.9073 34° Northeast  Level FlightAware Approximate
02:52PM 44.2075 -69.8868 34° Northeast  Level FlightAware Approximate
02:53PM 44.2291 -69.8664 34° Northeast  Level FlightAware Approximate
02:54PM 44.2508 -69.8459 34° Northeast  Level FlightAware Approximate
02:55PM 44.2724 -69.8254 34° Northeast  Level FlightAware Approximate
02:56PM 44.2940 -69.8049 34° Northeast  Level FlightAware Approximate
02:57PM 44.3156 -69.7843 34° Northeast  Level FlightAware Approximate
02:58PM 44.2987 -69.8073 224° Southwest  Level FlightAware Approximate
02:59PM 44.2798 -69.8325 224° Southwest  Level FlightAware Approximate
03:00PM 44.2621 -69.8592 235° Southwest  Level FlightAware Approximate
03:01PM 44.2472 -69.8891 235° Southwest  Level FlightAware Approximate
03:02PM 44.2322 -69.9190 235° Southwest  Level FlightAware Approximate
03:03PM 44.2172 -69.9489 235° Southwest  Level FlightAware Approximate
03:04PM 44.2023 -69.9788 235° Southwest  Level FlightAware Approximate
03:05PM 44.1864 -70.0078 232° Southwest  Level FlightAware Approximate
03:06PM 44.2056 -69.9749 51° Northeast  Level FlightAware Approximate
03:07PM 44.2247 -69.9421 51° Northeast  Level FlightAware Approximate
03:08PM 44.2438 -69.9092 51° Northeast  Level FlightAware Approximate
03:09PM 44.2629 -69.8762 51° Northeast  Level FlightAware Approximate
03:10PM 44.2820 -69.8433 51° Northeast  Level FlightAware Approximate
03:11PM 44.3011 -69.8103 51° Northeast  Level FlightAware Approximate
03:12PM 44.3175 -69.8078 273° West  Level FlightAware Approximate
03:13PM 44.3190 -69.8501 273° West  Level FlightAware Approximate
03:13PM 44.2994 -70.2847 272° West 114 131 8,000  Level Boston Center
03:14PM 44.3205 -69.8925 273° West  Level FlightAware Approximate
03:14PM 44.3044 -70.3225 280° West 114 131 8,000  Level Boston Center
03:15PM 44.3219 -69.9349 273° West  Level FlightAware Approximate
03:15PM 44.3092 -70.3658 279° West 114 131 7,900  Level Boston Center
03:16PM 44.3234 -69.9772 273° West  Level FlightAware Approximate
03:16PM 44.3122 -70.4061 276° West 114 131 7,900  Level Boston Center
03:17PM 44.3248 -70.0196 273° West  Level FlightAware Approximate
03:17PM 44.3150 -70.4525 275° West 119 137 7,900  Level Boston Center
03:18PM 44.3260 -70.0620 272° West  Level FlightAware Approximate
03:18PM 44.3200 -70.4931 280° West 119 137 8,100  Level Boston Center
03:19PM 44.3225 -70.5336 275° West 114 131 8,500 360 Climbing Boston Center
03:20PM 44.3272 -70.5683 281° West 108 124 8,900 240 Climbing Boston Center
03:21PM 44.3322 -70.6144 279° West 103 119 9,000  Climbing Boston Center
03:22PM 44.3328 -70.6464 271° West 108 124 9,000  Level Boston Center
03:23PM 44.3356 -70.6986 274° West 108 124 9,000  Level Boston Center
03:24PM 44.3403 -70.7361 280° West 108 124 9,000  Level Boston Center
03:25PM 44.3453 -70.7856 278° West 108 124 9,000  Level Boston Center
03:26PM 44.3458 -70.8231 271° West 108 124 9,000  Level Boston Center
03:27PM 44.3486 -70.8694 275° West 114 131 9,000  Level Boston Center
03:28PM 44.3533 -70.9131 279° West 114 131 9,000  Level Boston Center
03:29PM 44.3558 -70.9564 275° West 114 131 9,000  Level Boston Center
03:30PM 44.3564 -70.9972 271° West 119 137 9,000  Level Boston Center
03:31PM 44.3611 -71.0464 278° West 119 137 9,000  Level Boston Center
03:32PM 44.3639 -71.0869 275° West 119 137 9,000  Level Boston Center
03:33PM 44.3664 -71.1333 274° West 119 137 9,000  Level Boston Center
03:34PM 44.3689 -71.1711 275° West 119 137 9,000  Level Boston Center
03:35PM 44.3672 -71.2147 267° West 119 137 9,000  Level Boston Center
03:36PM 44.3719 -71.2581 279° West 119 137 9,000  Level Boston Center
03:37PM 44.3767 -71.3161 277° West 125 144 9,000  Level Boston Center
03:38PM 44.3792 -71.3625 274° West 125 144 9,000  Level Boston Center
03:39PM 44.3817 -71.4031 275° West 120 138 9,000  Level Boston Center
03:40PM 44.3800 -71.4497 267° West 120 138 9,000  Level Boston Center
03:41PM 44.3844 -71.4931 278° West 120 138 9,100  Climbing Boston Center
03:42PM 44.3869 -71.5367 275° West 120 138 9,000 -60 Descending Boston Center
03:43PM 44.3894 -71.5803 275° West 120 138 9,000  Level Boston Center
03:44PM 44.3939 -71.6236 278° West 120 138 9,000  Level Boston Center
03:45PM 44.3961 -71.6614 275° West 120 138 9,000  Level Boston Center
03:46PM 44.4006 -71.7019 279° West 115 132 9,000  Level Boston Center
03:47PM 44.4008 -71.7456 271° West 115 132 9,000  Level Boston Center
03:48PM 44.4053 -71.7892 278° West 110 127 9,000  Level Boston Center
03:49PM 44.4078 -71.8300 275° West 110 127 9,000  Level Boston Center
03:50PM 44.4100 -71.8792 274° West 110 127 9,000  Level Boston Center
03:51PM 44.4144 -71.9228 278° West 110 127 9,000  Level Boston Center
03:52PM 44.4144 -71.9636 270° West 110 127 9,000  Level Boston Center
03:53PM 44.4167 -72.0042 274° West 105 121 9,000  Level Boston Center
03:54PM 44.4211 -72.0478 278° West 105 121 9,000  Level Boston Center
03:55PM 44.4233 -72.0856 275° West 105 121 9,000  Level Boston Center
03:56PM 44.4256 -72.1292 274° West 105 121 9,000  Level Boston Center
03:57PM 44.4278 -72.1697 274° West 105 121 9,000  Level Boston Center
03:58PM 44.4297 -72.2075 274° West 105 121 9,000  Level Boston Center
03:59PM 44.4278 -72.2542 267° West 105 121 9,000  Level Boston Center
04:00PM 44.4300 -72.2978 274° West 105 121 9,000  Level Boston Center
04:01PM 44.4300 -72.3414 270° West 110 127 9,000 -60 Level Boston Center
04:02PM 44.4322 -72.3850 274° West 115 132 8,900  Descending Boston Center
04:03PM 44.4342 -72.4256 274° West 115 132 9,000  Climbing Boston Center
04:04PM 44.4364 -72.4661 274° West 110 127 9,000 -180 Level Boston Center
04:05PM 44.4406 -72.5100 278° West 110 127 8,700 -300 Descending Boston Center
04:06PM 44.4425 -72.5564 273° West 115 132 8,400 -300 Descending Boston Center
04:07PM 44.4444 -72.6028 273° West 120 138 8,100 -300 Descending Boston Center
04:08PM 44.4300 -72.6378 240° Southwest 116 133 7,900 -300 Descending Boston Center
04:09PM 44.3986 -72.6492 195° South 109 125 7,500 -420 Descending Boston Center
04:10PM 44.3694 -72.6608 196° South 120 138 7,100 -300 Descending Boston Center
04:11PM 44.3403 -72.6781 203° Southwest 120 138 7,000 -120 Descending Boston Center
04:12PM 44.3172 -72.7011 216° Southwest 108 124 6,900 -300 Descending Boston Center
04:13PM 44.2942 -72.7331 225° Southwest 108 124 6,500 -420 Descending Boston Center
04:14PM 44.2733 -72.7647 227° Southwest 119 137 6,100 -300 Descending Boston Center
04:15PM 44.2544 -72.7936 228° Southwest 109 125 6,000  Descending Boston Center
04:17PM 44.2127 -72.7829 170° South  Level FlightAware Approximate
04:24PM 44.0471 -72.6365 134° Southeast  Level Estimated
04:25PM 44.0210 -72.6222 158° South  Level FlightAware Approximate
04:26PM 43.9950 -72.6079 158° South  Level FlightAware Approximate
04:27PM 43.9689 -72.5937 158° South  Level FlightAware Approximate
04:28PM 43.9421 -72.5730 137° Southeast  Level FlightAware Approximate
04:29PM 43.9206 -72.5450 137° Southeast  Level FlightAware Approximate
04:30PM 43.8992 -72.5171 137° Southeast  Level FlightAware Approximate
04:31PM 43.8777 -72.4892 137° Southeast  Level FlightAware Approximate
04:32PM 43.8563 -72.4613 137° Southeast  Level FlightAware Approximate
04:32PM 44.3894 -72.9456 149° Southeast 84 97 7,100  Level Boston Center
04:33PM 43.8348 -72.4334 137° Southeast  Level FlightAware Approximate
04:33PM 44.3686 -72.9164 135° Southeast 101 116 7,100  Level Boston Center
04:34PM 43.8133 -72.4055 137° Southeast  Level FlightAware Approximate
04:34PM 44.3439 -72.8958 149° Southeast 107 123 7,100  Level Boston Center
04:35PM 43.7918 -72.3777 137° Southeast  Level FlightAware Approximate
04:35PM 44.3208 -72.8811 155° Southeast 102 117 7,100  Level Boston Center
04:36PM 43.7710 -72.3490 134° Southeast  Level FlightAware Approximate
04:36PM 44.2939 -72.8547 145° Southeast 96 110 7,100  Level Boston Center
04:37PM 43.7505 -72.3197 134° Southeast  Level FlightAware Approximate
04:37PM 44.2731 -72.8344 145° Southeast 96 110 7,100  Level Boston Center
04:38PM 44.2525 -72.8139 144° Southeast 96 110 7,100 -60 Level Boston Center
04:39PM 44.2294 -72.7906 144° Southeast 96 110 7,000  Descending Boston Center
04:40PM 44.2067 -72.7675 144° Southeast 96 110 7,100  Climbing Boston Center
04:41PM 44.1817 -72.7442 146° Southeast 96 110 7,100  Level Boston Center
04:42PM 44.1589 -72.7178 140° Southeast 101 116 7,100  Level Boston Center
04:43PM 44.1381 -72.6947 142° Southeast 101 116 7,100  Level Boston Center
04:44PM 44.1153 -72.6686 141° Southeast 106 122 7,100  Level Boston Center
04:45PM 44.0903 -72.6394 140° Southeast 106 122 7,100  Level Boston Center
04:46PM 44.0675 -72.6192 147° Southeast 106 122 7,100  Level Boston Center
04:47PM 44.0425 -72.5961 146° Southeast 106 122 7,100  Level Boston Center
04:48PM 44.0194 -72.5758 148° Southeast 106 122 7,100  Level Boston Center
04:49PM 43.9944 -72.5525 146° Southeast 106 122 7,100  Level Boston Center
04:51PM 43.9656 -72.5236 144° Southeast 101 116 7,100  Level Boston Center
04:52PM 43.9467 -72.4978 135° Southeast 101 116 7,100  Level Boston Center
04:53PM 43.9258 -72.4833 153° Southeast 101 116 7,100  Level Boston Center
04:54PM 43.9050 -72.4603 141° Southeast 101 116 7,100  Level Boston Center
04:55PM 43.8800 -72.4400 150° Southeast 101 116 7,100  Level Boston Center
04:56PM 43.8592 -72.4169 141° Southeast 101 116 7,100  Level Boston Center
04:57PM 43.8342 -72.3942 147° Southeast 96 110 7,100  Level Boston Center
04:58PM 43.8111 -72.3711 144° Southeast 96 110 7,100  Level Boston Center
04:59PM 43.7903 -72.3481 141° Southeast 96 110 7,100  Level Boston Center
05:00PM 43.7633 -72.3194 143° Southeast 96 110 7,100  Level Boston Center
05:01PM 43.7361 -72.2906 143° Southeast 103 119 7,100  Level Boston Center
05:02PM 43.7153 -72.2650 138° Southeast 103 119 7,100  Level Boston Center
05:03PM 43.6922 -72.2392 141° Southeast 103 119 7,100  Level Boston Center
05:04PM 43.6714 -72.2161 141° Southeast 103 119 7,100  Level Boston Center
05:05PM 43.6464 -72.2019 158° South 103 119 7,100  Level Boston Center
05:06PM 43.6214 -72.1819 150° Southeast 103 119 7,100  Level Boston Center
05:07PM 43.5942 -72.1619 152° Southeast 103 119 7,100  Level Boston Center
05:08PM 43.5692 -72.1450 154° Southeast 103 119 7,100  Level Boston Center
05:09PM 43.5461 -72.1278 152° Southeast 103 119 7,100  Level Boston Center
05:10PM 43.5233 -72.1050 144° Southeast 103 119 7,100  Level Boston Center
05:11PM 43.4981 -72.0881 154° Southeast 98 113 7,100 -60 Level Boston Center
05:12PM 43.4731 -72.0711 154° Southeast 98 113 7,000 -60 Descending Boston Center
05:13PM 43.4458 -72.0511 152° Southeast 98 113 7,000  Level Boston Center
05:14PM 43.4231 -72.0342 152° Southeast 98 113 7,000  Level Boston Center
05:15PM 43.3936 -72.0114 151° Southeast 98 113 7,000  Level Boston Center
05:16PM 43.3708 -71.9975 156° South 93 107 7,000 -240 Level Boston Center
05:17PM 43.3414 -71.9775 154° Southeast 104 120 6,600 -420 Descending Boston Center
05:18PM 43.3183 -71.9606 152° Southeast 104 120 6,200 -480 Descending Boston Center
05:19PM 43.2872 -71.9408 155° Southeast 114 131 5,700 -540 Descending Boston Center
05:20PM 43.2642 -71.9239 152° Southeast 114 131 5,200 -360 Descending Boston Center
05:21PM 43.2347 -71.9044 154° Southeast 114 131 5,000 -120 Descending Boston Center
05:22PM 43.2139 -71.8875 149° Southeast 114 131 5,000 -120 Level Boston Center
05:24PM 43.1667 -71.8500 150° Southeast 101 116 4,700 -300 Descending KA90
05:25PM 43.1500 -71.8333 144° Southeast 109 125 4,300 -360 Descending KA90
05:26PM 43.1167 -71.8167 160° South 113 130 4,100 -120 Descending KA90
05:27PM 43.1000 -71.7833 124° Southeast 110 127 4,100  Level KA90
05:28PM 43.0667 -71.7667 160° South 113 130 4,100  Level KA90
05:29PM 43.0333 -71.7500 160° South 111 128 4,100  Level KA90
05:30PM 43.0167 -71.7333 144° Southeast 110 127 4,100  Level KA90
05:31PM 42.9833 -71.7000 144° Southeast 119 137 4,100  Level KA90
05:32PM 42.9500 -71.6833 160° South 114 131 4,100  Level KA90
05:33PM 42.9167 -71.6667 160° South 112 129 4,100  Level KA90
05:34PM 42.9000 -71.6333 124° Southeast 114 131 4,100  Level KA90
05:35PM 42.8667 -71.6167 160° South 115 132 4,100  Level KA90
05:36PM 42.8500 -71.6000 144° Southeast 115 132 4,100  Level KA90
05:37PM 42.8167 -71.5667 144° Southeast 115 132 4,100  Level KA90
05:38PM 42.7833 -71.5500 160° South 116 133 4,100  Level KA90
05:39PM 42.7667 -71.5333 144° Southeast 118 136 4,100  Level KA90
05:40PM 42.7333 -71.5333 180° South 111 128 4,100  Level KA90
05:41PM 42.7000 -71.5333 180° South 111 128 4,100  Level KA90
05:42PM 42.6667 -71.5167 160° South 111 128 4,100  Level KA90
05:43PM 42.6333 -71.5167 180° South 111 128 4,100  Level KA90
05:44PM 42.6167 -71.5167 180° South 113 130 4,100 -300 Level KA90
05:45PM 42.5833 -71.5333 200° South 107 123 3,500 -600 Descending KA90
05:46PM 42.5500 -71.5333 180° South 102 117 3,000 -240 Descending KA90
05:47PM 42.5333 -71.5500 216° Southwest 93 107 3,100  Climbing KA90
05:48PM 42.5000 -71.5500 180° South 100 115 3,100 -240 Level KA90
05:49PM 42.5000 -71.5000 90° East 116 133 2,700 -480 Descending KA90
05:50PM 42.4833 -71.4667 124° Southeast 122 140 2,200 -300 Descending KA90
05:51PM 42.4833 -71.4167 90° East 119 137 2,100 -420 Descending KA90
05:52PM 42.4833 -71.3667 90° East 127 146 1,400 -660 Descending KA90
05:53PM 42.4833 -71.3333 90° East 107 123 800 -600 Descending KA90
05:55PM 42.4667 -71.2833 100° East  Level FlightAware Approximate
06:02PM 42.4699 -71.2890 100° East  Level Estimated